Flight Track Log - Related Links

Times and Time Zones

All times are in EDT time to prevent confusion due to time zone crossing. See the SWA407 flight status page for this flight to view local times or setup timezone preferences in your user account.

Time Position Orientation Groundspeed Altitude Reporting Facility
EDT Latitude Longitude Course Direction KTS MPH feet Rate Location/Type
Fri 01:19:36 AM 37.6333 -122.3667 322° Northwest 148 170 1,400  Level Northern Cal TRACON
Fri 01:20:36 AM 37.6667 -122.4000 322° Northwest 214 246 3,800 2,947 Climbing Northern Cal TRACON
Fri 01:21:30 AM 37.6167 -122.4500 218° Southwest 246 283 7,000 3,200 Climbing Northern Cal TRACON
Fri 01:22:36 AM 37.5333 -122.4667 189° South 289 333 10,200 2,818 Climbing Northern Cal TRACON
Fri 01:23:42 AM 37.4481 -122.4894 192° South 332 382 13,200 3,402 Climbing Oakland Center
Fri 01:24:43 AM 37.3486 -122.5075 188° South 359 413 17,400 3,719 Climbing Oakland Center
Fri 01:25:43 AM 37.2431 -122.5247 187° South 380 437 20,700 3,223 Climbing Oakland Center
Fri 01:26:44 AM 37.1325 -122.5422 187° South 397 457 23,900 2,902 Climbing Oakland Center
Fri 01:27:45 AM 37.0236 -122.4925 160° South 431 496 26,600 2,607 Climbing Oakland Center
Fri 01:28:46 AM 36.9264 -122.3989 142° Southeast 444 511 29,200 2,557 Climbing Oakland Center
Fri 01:29:47 AM 36.8022 -122.2850 144° Southeast 462 532 31,800 2,479 Climbing Oakland Center
Fri 01:30:47 AM 36.6975 -122.1867 143° Southeast 471 542 34,200 2,231 Climbing Oakland Center
Fri 01:31:48 AM 36.5908 -122.0914 144° Southeast 473 544 36,300 1,869 Climbing Oakland Center
Fri 01:32:49 AM 36.4864 -121.9947 143° Southeast 470 541 38,000 1,328 Climbing Oakland Center
Fri 01:33:50 AM 36.3806 -121.8986 144° Southeast 471 542 39,000 492 Climbing Oakland Center
Fri 01:34:51 AM 36.2758 -121.8033 144° Southeast 468 539 39,000  Level Oakland Center
Fri 01:35:52 AM 36.1628 -121.7019 144° Southeast 466 536 39,000  Level Oakland Center
Fri 01:36:52 AM 36.0731 -121.5878 134° Southeast 463 533 39,000  Level Oakland Center
Fri 01:37:53 AM 35.9922 -121.4600 128° Southeast 470 541 39,000  Level Oakland Center
Fri 01:38:54 AM 35.9106 -121.3364 129° Southeast 467 537 39,000  Level Oakland Center
Fri 01:39:55 AM 35.8289 -121.2111 129° Southeast 468 539 39,000  Level Oakland Center
Fri 01:40:56 AM 35.7478 -121.0872 129° Southeast 468 539 39,000  Level Oakland Center
Fri 01:41:56 AM 35.6653 -120.9617 129° Southeast 469 540 39,000  Level Oakland Center
Fri 01:42:57 AM 35.5828 -120.8369 129° Southeast 471 542 39,000  Level Oakland Center
Fri 01:43:58 AM 35.5000 -120.7133 129° Southeast 471 542 39,000  Level Oakland Center
Fri 01:44:59 AM 35.4183 -120.5892 129° Southeast 472 543 39,000  Level Oakland Center
Fri 01:45:59 AM 35.3300 -120.4589 130° Southeast 474 545 39,000  Level Oakland Center
Fri 01:46:26 AM 35.2967 -120.4083 129° Southeast 477 549 39,000  Level Los Angeles Center
Fri 01:47:27 AM 35.2133 -120.2811 129° Southeast 477 549 39,000  Level Los Angeles Center
Fri 01:48:29 AM 35.1300 -120.1569 129° Southeast 473 544 39,000  Level Los Angeles Center
Fri 01:49:42 AM 35.0411 -120.0256 130° Southeast 472 543 39,000  Level Los Angeles Center
Fri 01:50:43 AM 34.9400 -119.8758 129° Southeast 476 548 39,000  Level Los Angeles Center
Fri 01:51:44 AM 34.8550 -119.7519 130° Southeast 479 551 39,000  Level Los Angeles Center
Fri 01:52:45 AM 34.7694 -119.6283 130° Southeast 479 551 39,000  Level Los Angeles Center
Fri 01:53:46 AM 34.6678 -119.4783 129° Southeast 480 552 39,000  Level Los Angeles Center
Fri 01:54:48 AM 34.5858 -119.3636 131° Southeast 478 550 39,000  Level Los Angeles Center
Fri 01:55:49 AM 34.4997 -119.2400 130° Southeast 479 551 39,000  Level Los Angeles Center
Fri 01:56:50 AM 34.4131 -119.1161 130° Southeast 480 552 39,000  Level Los Angeles Center
Fri 01:57:51 AM 34.3272 -118.9931 130° Southeast 480 552 39,000  Level Los Angeles Center
Fri 01:58:52 AM 34.2406 -118.8694 130° Southeast 481 554 39,000  Level Los Angeles Center
Fri 01:59:54 AM 34.1539 -118.7469 131° Southeast 479 551 39,000 -98 Level Los Angeles Center
Fri 02:00:55 AM 34.0508 -118.5981 130° Southeast 481 554 38,800 -1,033 Descending Los Angeles Center
Fri 02:01:56 AM 33.9631 -118.4750 131° Southeast 482 555 36,900 -2,410 Descending Los Angeles Center
Fri 02:02:57 AM 33.8717 -118.3531 132° Southeast 486 559 33,900 -2,656 Descending Los Angeles Center
Fri 02:03:58 AM 33.7842 -118.2461 135° Southeast 481 554 31,500 -2,262 Descending Los Angeles Center
Fri 02:04:59 AM 33.7033 -118.1378 132° Southeast 475 547 29,300 -1,721 Descending Los Angeles Center
Fri 02:06:00 AM 33.6008 -118.0078 133° Southeast 446 513 28,000 -1,082 Descending Los Angeles Center
Fri 02:07:01 AM 33.5189 -117.9036 133° Southeast 432 497 27,100 -2,311 Descending Los Angeles Center
Fri 02:08:02 AM 33.4353 -117.7972 133° Southeast 439 505 23,300 -3,429 Descending Los Angeles Center
Fri 02:08:39 AM 33.3833 -117.7333 134° Southeast 443 510 21,500 -2,557 Descending Southern California TRACON
Fri 02:09:03 AM 33.3489 -117.6908 134° Southeast 445 512 20,700 -2,329 Descending Los Angeles Center
Fri 02:10:04 AM 33.2692 -117.5911 134° Southeast 422 486 18,200 -2,412 Descending Los Angeles Center
Fri 02:10:40 AM 33.2167 -117.5333 137° Southeast 408 470 16,800 -2,176 Descending Southern California TRACON
Fri 02:11:46 AM 33.1167 -117.4500 145° Southeast 389 448 14,500 -2,023 Descending Southern California TRACON
Fri 02:12:06 AM 33.0964 -117.4350 148° Southeast 389 448 13,900 -2,222 Descending Los Angeles Center
Fri 02:13:07 AM 33.0119 -117.3703 147° Southeast 370 426 11,500 -2,220 Descending Los Angeles Center
Fri 02:13:46 AM 32.9500 -117.3167 144° Southeast 332 382 10,200 -1,742 Descending Southern California TRACON
Fri 02:14:40 AM 32.8833 -117.2667 148° Southeast 298 343 8,800 -1,446 Descending Southern California TRACON
Fri 02:15:09 AM 32.8686 -117.2542 145° Southeast 302 348 8,200 -1,267 Descending Los Angeles Center
Fri 02:16:10 AM 32.8058 -117.1986 143° Southeast 288 331 6,900 -1,033 Descending Los Angeles Center
Fri 02:17:11 AM 32.7919 -117.1169 101° East 247 284 6,100 -750 Descending Los Angeles Center
Fri 02:17:46 AM 32.7833 -117.0667 102° East 214 246 5,700 -674 Descending Southern California TRACON
Fri 02:18:40 AM 32.7667 -117.0167 112° Southeast 196 226 5,100 -800 Descending Southern California TRACON
Fri 02:19:46 AM 32.7000 -117.0167 180° South 181 208 4,100 -1,048 Descending Southern California TRACON
Fri 02:20:46 AM 32.7000 -117.0667 270° West 147 169 2,900 -1,286 Descending Southern California TRACON
Fri 02:21:52 AM 32.7167 -117.1167 292° West 123 142 1,400 -1,095 Descending Southern California TRACON
Fri 02:22:52 AM 32.7167 -117.1500 270° West 119 137 600 -776 Descending Southern California TRACON
Fri 02:23:17 AM 32.7264 -117.1606 318° Northwest 118 136 300 -349 Descending Los Angeles Center
Fri 02:24:18 AM 32.7350 -117.1947 287° West 116 133 100 -197 Descending Los Angeles Center
Fri 02:26:00 AM 32.7336 -117.1897 289° West  Level Estimated

Login

Don't have an account? Register now (free) for customized features, flight alerts, and more!